Time;durP1;ratioP1;P1;durP2;ratioP2;P2;SDS_P1;SDS_P2;PMS_P1;PMS_P2;Temp;Humidity;BMP_temperature;BMP_pressure;BME280_temperature;BME280_humidity;BME280_pressure;Samples;Min_cycle;Max_cycle;Signal;HPM_P1;HPM_P2
2022/04/01 00:01:21;;;;;;;33.25;9.48;;;;;;;;;;5012796;28;20077;-81
2022/04/01 00:03:47;;;;;;;27.58;9.20;;;;;;;;;;5012441;28;20030;-81
2022/04/01 00:06:13;;;;;;;32.05;9.30;;;;;;;;;;5012849;28;20104;-81
2022/04/01 00:08:39;;;;;;;32.72;11.10;;;;;;;;;;5012548;28;20501;-81
2022/04/01 00:11:06;;;;;;;31.08;9.50;;;;;;;;;;5012501;28;20034;-78
2022/04/01 00:13:32;;;;;;;33.63;9.80;;;;;;;;;;5012600;28;20431;-79
2022/04/01 00:15:59;;;;;;;32.10;10.60;;;;;;;;;;5012441;28;20038;-80
2022/04/01 00:18:25;;;;;;;33.42;10.45;;;;;;;;;;5012720;28;20022;-80
2022/04/01 00:20:51;;;;;;;27.33;8.98;;;;;;;;;;5012439;28;20030;-80
2022/04/01 00:23:17;;;;;;;33.17;10.15;;;;;;;;;;5012628;28;20026;-81
2022/04/01 00:25:44;;;;;;;22.33;9.07;;;;;;;;;;5012634;28;20026;-81
2022/04/01 00:28:10;;;;;;;24.73;8.57;;;;;;;;;;5012314;28;20057;-80
2022/04/01 00:30:38;;;;;;;24.50;8.52;;;;;;;;;;5011000;28;20038;-81
2022/04/01 00:33:23;;;;;;;27.80;9.57;;;;;;;;;;5014583;28;20065;-80
2022/04/01 00:35:49;;;;;;;23.95;9.07;;;;;;;;;;5016138;28;20033;-79
2022/04/01 00:38:15;;;;;;;30.90;10.05;;;;;;;;;;5016439;28;20026;-79
2022/04/01 00:40:41;;;;;;;28.60;9.85;;;;;;;;;;5016094;28;20033;-81
2022/04/01 00:43:08;;;;;;;29.35;10.20;;;;;;;;;;5016334;28;20489;-82
2022/04/01 00:45:34;;;;;;;28.83;9.85;;;;;;;;;;5016180;28;20037;-81
2022/04/01 00:48:02;;;;;;;22.98;9.60;;;;;;;;;;5016068;28;20040;-82
2022/04/01 00:50:34;;;;;;;24.52;8.95;;;;;;;;;;5016096;28;20029;-80
2022/04/01 00:53:01;;;;;;;26.30;8.60;;;;;;;;;;5016076;28;20104;-80
2022/04/01 00:55:30;;;;;;;27.48;8.75;;;;;;;;;;5016253;28;20044;-80
2022/04/01 00:57:57;;;;;;;30.25;11.20;;;;;;;;;;5015834;28;20468;-80
2022/04/01 01:00:25;;;;;;;39.88;12.02;;;;;;;;;;5016018;28;20022;-82
2022/04/01 01:02:51;;;;;;;31.45;10.50;;;;;;;;;;5015726;28;20388;-79
2022/04/01 01:05:17;;;;;;;26.70;10.63;;;;;;;;;;5015900;28;20088;-82
2022/04/01 01:07:43;;;;;;;29.33;9.15;;;;;;;;;;5014315;28;20447;-81
2022/04/01 01:10:14;;;;;;;24.98;8.45;;;;;;;;;;5015787;28;20022;-79
2022/04/01 01:12:43;;;;;;;27.50;9.18;;;;;;;;;;5015670;28;20068;-82
2022/04/01 01:15:13;;;;;;;30.85;9.25;;;;;;;;;;5015794;28;20064;-81
2022/04/01 01:17:39;;;;;;;37.25;10.52;;;;;;;;;;5015619;28;20541;-78
2022/04/01 01:20:12;;;;;;;33.97;10.55;;;;;;;;;;5015678;28;20092;-79
2022/04/01 01:22:42;;;;;;;29.50;9.50;;;;;;;;;;5015382;28;20025;-80
2022/04/01 01:25:09;;;;;;;25.95;9.25;;;;;;;;;;5015642;28;20034;-79
2022/04/01 01:27:35;;;;;;;28.60;9.10;;;;;;;;;;5015309;28;20449;-81
2022/04/01 01:30:04;;;;;;;31.05;9.73;;;;;;;;;;5015282;28;20033;-78
2022/04/01 01:32:32;;;;;;;29.67;9.20;;;;;;;;;;5015083;28;20516;-78
2022/04/01 01:34:59;;;;;;;30.00;10.23;;;;;;;;;;5015357;28;20041;-80
2022/04/01 01:37:25;;;;;;;27.17;8.68;;;;;;;;;;5015137;28;20469;-81
2022/04/01 01:39:52;;;;;;;29.75;8.60;;;;;;;;;;5015204;28;20018;-79
2022/04/01 01:42:18;;;;;;;28.63;9.48;;;;;;;;;;5015128;28;20029;-78
2022/04/01 01:44:45;;;;;;;28.33;9.27;;;;;;;;;;5014572;28;20038;-79
2022/04/01 01:47:12;;;;;;;21.50;8.45;;;;;;;;;;5014020;28;20033;-80
2022/04/01 01:54:42;;;;;;;26.00;9.27;;;;;;;;;;5014791;28;20057;-80
2022/04/01 01:55:09;;;;;;;30.88;9.93;;;;;;;;;;5014732;28;20164;-81
2022/04/01 01:57:35;;;;;;;32.20;9.60;;;;;;;;;;5014888;28;20103;-78
2022/04/01 02:00:10;;;;;;;23.45;8.90;;;;;;;;;;5014715;28;20030;-82
2022/04/01 02:02:37;;;;;;;27.33;10.00;;;;;;;;;;5015058;28;20026;-80
2022/04/01 02:05:03;;;;;;;28.63;9.68;;;;;;;;;;5014739;28;20033;-80
2022/04/01 02:07:29;;;;;;;24.38;9.52;;;;;;;;;;5014905;28;20396;-80
2022/04/01 02:09:55;;;;;;;28.63;10.45;;;;;;;;;;5014635;28;20037;-81
2022/04/01 02:12:21;;;;;;;32.30;8.88;;;;;;;;;;5014691;28;20488;-81
2022/04/01 02:14:47;;;;;;;33.60;9.27;;;;;;;;;;5014666;28;20116;-80
2022/04/01 02:17:13;;;;;;;32.05;10.27;;;;;;;;;;5014274;28;20519;-79
2022/04/01 02:19:40;;;;;;;32.05;9.25;;;;;;;;;;5014415;28;20026;-80
2022/04/01 02:22:07;;;;;;;26.52;9.52;;;;;;;;;;5014262;28;20076;-81
2022/04/01 02:24:33;;;;;;;31.27;11.45;;;;;;;;;;5014592;28;20022;-81
2022/04/01 02:27:00;;;;;;;24.00;9.68;;;;;;;;;;5014146;28;20026;-78
2022/04/01 02:29:28;;;;;;;31.77;9.73;;;;;;;;;;5014438;28;20184;-81
2022/04/01 02:31:54;;;;;;;29.17;9.88;;;;;;;;;;5013931;28;20058;-80
2022/04/01 02:34:26;;;;;;;29.67;10.60;;;;;;;;;;5014158;28;20107;-79
2022/04/01 02:36:55;;;;;;;26.05;9.82;;;;;;;;;;5014099;28;20033;-81
2022/04/01 02:39:21;;;;;;;21.75;10.13;;;;;;;;;;5014127;28;20026;-79
2022/04/01 02:41:48;;;;;;;31.00;9.93;;;;;;;;;;5014065;28;20037;-79
2022/04/01 02:44:14;;;;;;;37.38;10.50;;;;;;;;;;5013950;28;20033;-79
2022/04/01 02:46:42;;;;;;;29.02;10.10;;;;;;;;;;5014189;28;20030;-80
2022/04/01 02:49:10;;;;;;;29.52;10.23;;;;;;;;;;5013765;28;20041;-80
2022/04/01 02:51:37;;;;;;;31.13;9.02;;;;;;;;;;5013893;28;20468;-80
2022/04/01 02:54:04;;;;;;;29.85;10.45;;;;;;;;;;5013372;28;20034;-82
2022/04/01 02:56:31;;;;;;;30.10;10.07;;;;;;;;;;5013422;28;20129;-78
2022/04/01 02:58:58;;;;;;;29.13;10.32;;;;;;;;;;5013679;28;20022;-78
2022/04/01 03:01:24;;;;;;;33.30;9.80;;;;;;;;;;5013839;28;20101;-81
2022/04/01 03:03:50;;;;;;;30.25;10.13;;;;;;;;;;5013638;28;20052;-78
2022/04/01 03:06:17;;;;;;;31.70;10.27;;;;;;;;;;5013588;28;20018;-81
2022/04/01 03:08:43;;;;;;;31.60;9.90;;;;;;;;;;5013644;28;20542;-78
2022/04/01 03:11:09;;;;;;;31.48;9.95;;;;;;;;;;5013332;28;20076;-78
2022/04/01 03:13:36;;;;;;;28.98;9.85;;;;;;;;;;5013644;28;20057;-79
2022/04/01 03:16:02;;;;;;;25.42;9.93;;;;;;;;;;5013231;28;20465;-78
2022/04/01 03:18:28;;;;;;;30.83;10.90;;;;;;;;;;5013315;28;20038;-79
2022/04/01 03:20:54;;;;;;;32.30;11.18;;;;;;;;;;5013415;28;20025;-80
2022/04/01 03:23:20;;;;;;;34.30;10.52;;;;;;;;;;5013104;28;20026;-78
2022/04/01 03:25:47;;;;;;;40.38;11.15;;;;;;;;;;5013335;28;20052;-78
2022/04/01 03:28:13;;;;;;;31.63;10.13;;;;;;;;;;5013114;28;20381;-80
2022/04/01 03:30:39;;;;;;;32.95;9.93;;;;;;;;;;5013192;28;20034;-81
2022/04/01 03:33:05;;;;;;;25.67;8.93;;;;;;;;;;5012844;28;20065;-79
2022/04/01 03:35:32;;;;;;;34.25;11.00;;;;;;;;;;5013251;28;20061;-81
2022/04/01 03:37:59;;;;;;;28.67;9.80;;;;;;;;;;5012958;28;20032;-80
2022/04/01 03:40:29;;;;;;;28.70;9.98;;;;;;;;;;5013015;28;20018;-79
2022/04/01 03:42:55;;;;;;;29.42;10.05;;;;;;;;;;5013004;28;20025;-82
2022/04/01 03:45:22;;;;;;;32.85;10.98;;;;;;;;;;5011611;28;20029;-79
2022/04/01 03:47:51;;;;;;;25.83;9.25;;;;;;;;;;5013050;28;20021;-81
2022/04/01 03:50:18;;;;;;;33.33;9.82;;;;;;;;;;5012762;28;20092;-78
2022/04/01 03:52:47;;;;;;;33.15;10.18;;;;;;;;;;5013064;28;20435;-80
2022/04/01 03:55:13;;;;;;;32.70;10.52;;;;;;;;;;5012622;28;20022;-79
2022/04/01 03:57:41;;;;;;;33.80;10.60;;;;;;;;;;5012991;28;20026;-80
2022/04/01 04:00:08;;;;;;;28.52;9.88;;;;;;;;;;5012307;28;20030;-79
2022/04/01 04:02:35;;;;;;;34.90;12.50;;;;;;;;;;5012868;28;20030;-79
2022/04/01 04:16:57;;;;;;;32.60;10.07;;;;;;;;;;5089556;27;20412;-75
2022/04/01 04:19:28;;;;;;;33.00;9.35;;;;;;;;;;5088548;28;20453;-80
2022/04/01 04:22:11;;;;;;;34.88;10.57;;;;;;;;;;5089507;28;20046;-79
2022/04/01 04:24:43;;;;;;;32.72;10.75;;;;;;;;;;5084605;28;20029;-78
2022/04/01 04:27:15;;;;;;;35.53;10.00;;;;;;;;;;5070196;28;20046;-78
2022/04/01 04:29:51;;;;;;;30.27;10.95;;;;;;;;;;5069308;28;20356;-79
2022/04/01 04:32:28;;;;;;;33.35;9.57;;;;;;;;;;5069209;28;20487;-82
2022/04/01 04:34:55;;;;;;;31.75;10.73;;;;;;;;;;5069111;28;20021;-78
2022/04/01 04:37:25;;;;;;;36.75;9.93;;;;;;;;;;5069304;28;20036;-77
2022/04/01 04:39:51;;;;;;;32.60;9.70;;;;;;;;;;5068755;28;20024;-79
2022/04/01 04:42:17;;;;;;;30.92;9.95;;;;;;;;;;5069155;28;20031;-77
2022/04/01 04:47:32;;;;;;;31.85;11.27;;;;;;;;;;5045877;28;20107;-75
2022/04/01 04:49:58;;;;;;;34.88;11.18;;;;;;;;;;5048854;28;20037;-75
2022/04/01 04:52:29;;;;;;;33.35;10.13;;;;;;;;;;5030332;28;20383;-75
2022/04/01 04:54:56;;;;;;;31.60;10.18;;;;;;;;;;5048624;28;20056;-76
2022/04/01 04:57:22;;;;;;;42.97;11.52;;;;;;;;;;5030238;28;20108;-79
2022/04/01 04:59:51;;;;;;;32.88;11.38;;;;;;;;;;5048340;28;20021;-76
2022/04/01 05:02:28;;;;;;;31.00;11.25;;;;;;;;;;5048230;28;20025;-78
2022/04/01 05:05:00;;;;;;;35.58;12.10;;;;;;;;;;5049466;28;20047;-75
2022/04/01 05:07:45;;;;;;;34.25;9.90;;;;;;;;;;5048416;28;20112;-81
2022/04/01 05:10:12;;;;;;;;;;;;;;;;;;5048594;28;20061;-79
2022/04/01 05:13:02;;;;;;;31.40;10.18;;;;;;;;;;5048503;28;19982;-81
2022/04/01 05:15:34;;;;;;;41.03;12.43;;;;;;;;;;5042870;28;20503;-80
2022/04/01 05:18:07;;;;;;;39.65;10.98;;;;;;;;;;5034391;28;20502;-77
2022/04/01 05:20:38;;;;;;;33.65;10.35;;;;;;;;;;5028462;28;20029;-76
2022/04/01 05:23:06;;;;;;;34.08;10.52;;;;;;;;;;5031291;28;20033;-80
2022/04/01 05:25:39;;;;;;;35.08;9.25;;;;;;;;;;5030851;28;20076;-79
2022/04/01 05:28:05;;;;;;;33.28;10.02;;;;;;;;;;5017966;28;20065;-79
2022/04/01 05:30:33;;;;;;;37.40;11.57;;;;;;;;;;5034316;28;20104;-76
2022/04/01 05:33:02;;;;;;;33.13;11.02;;;;;;;;;;5034828;28;20025;-74
2022/04/01 05:35:33;;;;;;;41.58;10.50;;;;;;;;;;5033437;28;20113;-77
2022/04/01 05:38:00;;;;;;;34.15;9.15;;;;;;;;;;5014691;28;20075;-80
2022/04/01 05:40:27;;;;;;;28.27;9.48;;;;;;;;;;5012447;28;20538;-78
2022/04/01 05:42:55;;;;;;;37.15;10.43;;;;;;;;;;5013789;28;20033;-80
2022/04/01 05:45:21;;;;;;;38.28;9.73;;;;;;;;;;5014657;28;20042;-81
2022/04/01 05:47:47;;;;;;;33.20;11.40;;;;;;;;;;5014015;28;20400;-78
2022/04/01 05:50:18;;;;;;;35.83;9.73;;;;;;;;;;5014015;28;20022;-79
2022/04/01 05:52:46;;;;;;;35.53;11.48;;;;;;;;;;5022007;28;20039;-80
2022/04/01 05:55:13;;;;;;;39.22;10.27;;;;;;;;;;5033699;28;20131;-78
2022/04/01 05:57:39;;;;;;;30.00;9.68;;;;;;;;;;5033859;28;20025;-77
2022/04/01 06:00:06;;;;;;;32.30;10.32;;;;;;;;;;5024120;28;20032;-80
2022/04/01 06:02:35;;;;;;;39.47;11.38;;;;;;;;;;5012538;28;20108;-78
2022/04/01 06:05:14;;;;;;;41.17;12.15;;;;;;;;;;5013249;28;20034;-78
2022/04/01 06:07:59;;;;;;;40.42;13.65;;;;;;;;;;5013457;28;20041;-82
2022/04/01 06:10:29;;;;;;;38.03;15.82;;;;;;;;;;5012759;28;20057;-79
2022/04/01 06:13:10;;;;;;;31.80;10.82;;;;;;;;;;5012309;28;20034;-79
2022/04/01 06:15:55;;;;;;;40.72;11.75;;;;;;;;;;5026028;28;20033;-78
2022/04/01 06:18:27;;;;;;;35.03;11.15;;;;;;;;;;5032336;28;20140;-80
2022/04/01 06:20:54;;;;;;;33.90;12.10;;;;;;;;;;5032703;28;20030;-77
2022/04/01 06:23:39;;;;;;;33.70;11.20;;;;;;;;;;5032034;28;20128;-77
2022/04/01 06:26:05;;;;;;;;;;;;;;;;;;5032891;28;20033;-76
2022/04/01 06:28:35;;;;;;;39.10;13.98;;;;;;;;;;5031172;28;19960;-77
2022/04/01 06:31:08;;;;;;;40.58;14.43;;;;;;;;;;5032622;28;20126;-79
2022/04/01 06:33:54;;;;;;;34.22;10.48;;;;;;;;;;5031876;28;20120;-77
2022/04/01 06:36:25;;;;;;;43.42;11.15;;;;;;;;;;5032012;28;20614;-80
2022/04/01 06:39:08;;;;;;;36.83;10.45;;;;;;;;;;5032566;28;20025;-76
2022/04/01 06:41:57;;;;;;;33.25;10.90;;;;;;;;;;5032085;28;20029;-79
2022/04/01 06:44:24;;;;;;;38.20;12.30;;;;;;;;;;5005628;28;20095;-78
2022/04/01 06:46:51;;;;;;;30.40;10.70;;;;;;;;;;5031854;28;20416;-78
2022/04/01 06:49:17;;;;;;;35.25;13.05;;;;;;;;;;5031794;28;20025;-77
2022/04/01 06:51:43;;;;;;;35.80;10.82;;;;;;;;;;5014286;28;20030;-77
2022/04/01 06:54:10;;;;;;;34.47;11.60;;;;;;;;;;5031876;28;20091;-81
2022/04/01 06:56:36;;;;;;;36.60;11.10;;;;;;;;;;5031512;28;20101;-82
2022/04/01 06:59:02;;;;;;;38.15;9.60;;;;;;;;;;5031945;28;20033;-76
2022/04/01 07:01:28;;;;;;;44.10;10.10;;;;;;;;;;5031685;28;20097;-79
2022/04/01 07:03:54;;;;;;;33.25;10.13;;;;;;;;;;5031557;28;20104;-80
2022/04/01 07:06:22;;;;;;;34.15;9.80;;;;;;;;;;5031303;28;20033;-75
2022/04/01 07:08:48;;;;;;;40.42;9.40;;;;;;;;;;5013634;28;20039;-82
2022/04/01 07:11:17;;;;;;;38.50;11.32;;;;;;;;;;5031550;28;20021;-81
2022/04/01 07:13:44;;;;;;;32.88;9.98;;;;;;;;;;5031240;28;20057;-79
2022/04/01 07:16:12;;;;;;;38.20;10.63;;;;;;;;;;5031712;28;20033;-77
2022/04/01 07:18:38;;;;;;;34.47;10.05;;;;;;;;;;5031367;28;20034;-80
2022/04/01 07:21:04;;;;;;;32.70;8.90;;;;;;;;;;5031489;28;20492;-79
2022/04/01 07:23:32;;;;;;;37.95;10.77;;;;;;;;;;5030650;28;20031;-79
2022/04/01 07:25:58;;;;;;;40.92;11.65;;;;;;;;;;5031142;28;20033;-77
2022/04/01 07:28:25;;;;;;;34.03;10.00;;;;;;;;;;5031275;28;20030;-83
2022/04/01 07:30:51;;;;;;;38.70;10.52;;;;;;;;;;5013215;28;20420;-80
2022/04/01 07:33:18;;;;;;;33.75;10.50;;;;;;;;;;5031274;28;20029;-76
2022/04/01 07:35:47;;;;;;;31.42;12.57;;;;;;;;;;5031248;28;20484;-78
2022/04/01 07:38:14;;;;;;;34.10;10.45;;;;;;;;;;5030931;28;20040;-78
2022/04/01 07:40:40;;;;;;;32.70;10.27;;;;;;;;;;5030502;28;20112;-87
2022/04/01 07:43:06;;;;;;;36.65;11.57;;;;;;;;;;5030880;28;20029;-76
2022/04/01 07:45:37;;;;;;;41.47;11.68;;;;;;;;;;5016169;28;20042;-82
2022/04/01 07:48:03;;;;;;;41.63;11.88;;;;;;;;;;5011043;28;20074;-82
2022/04/01 07:50:29;;;;;;;41.17;13.20;;;;;;;;;;5028862;28;20037;-84
2022/04/01 07:52:56;;;;;;;41.60;13.32;;;;;;;;;;5030490;28;20064;-73
2022/04/01 07:55:23;;;;;;;40.03;11.63;;;;;;;;;;5030869;28;20037;-82
2022/04/01 07:57:50;;;;;;;43.38;13.65;;;;;;;;;;5030627;28;20396;-80
2022/04/01 08:00:17;;;;;;;40.60;13.10;;;;;;;;;;5021701;28;20034;-81
2022/04/01 08:02:44;;;;;;;51.75;16.55;;;;;;;;;;5011158;28;20065;-75
2022/04/01 08:05:11;;;;;;;53.70;16.40;;;;;;;;;;5011594;28;20030;-79
2022/04/01 08:07:37;;;;;;;78.72;24.85;;;;;;;;;;5013040;28;20057;-78
2022/04/01 08:10:04;;;;;;;40.30;12.48;;;;;;;;;;5011977;28;20097;-81
2022/04/01 08:12:34;;;;;;;57.47;18.27;;;;;;;;;;5012244;28;20029;-80
2022/04/01 08:15:00;;;;;;;60.10;19.58;;;;;;;;;;5018664;28;20556;-75
2022/04/01 08:17:26;;;;;;;93.75;31.60;;;;;;;;;;5030884;28;20480;-80
2022/04/01 08:19:52;;;;;;;48.90;13.10;;;;;;;;;;5029747;28;20064;-78
2022/04/01 08:22:18;;;;;;;56.95;19.08;;;;;;;;;;5030782;28;20064;-81
2022/04/01 08:24:46;;;;;;;46.20;10.55;;;;;;;;;;5030644;28;20088;-82
2022/04/01 08:27:13;;;;;;;44.97;16.60;;;;;;;;;;5031100;28;20038;-79
2022/04/01 08:29:39;;;;;;;49.45;15.95;;;;;;;;;;5030881;28;20034;-78
2022/04/01 08:32:07;;;;;;;36.50;11.52;;;;;;;;;;5030672;28;20040;-77
2022/04/01 08:34:33;;;;;;;47.88;11.10;;;;;;;;;;5030443;28;20765;-79
2022/04/01 08:37:00;;;;;;;37.03;10.25;;;;;;;;;;5030449;28;20495;-78
2022/04/01 08:39:26;;;;;;;35.08;10.27;;;;;;;;;;5030765;28;20025;-81
2022/04/01 08:41:52;;;;;;;47.47;12.00;;;;;;;;;;5030564;28;20128;-79
2022/04/01 08:44:18;;;;;;;40.38;10.85;;;;;;;;;;5030321;28;20016;-79
2022/04/01 08:46:44;;;;;;;38.53;10.55;;;;;;;;;;5008084;28;20089;-76
2022/04/01 08:49:11;;;;;;;37.33;11.90;;;;;;;;;;5029893;28;20032;-80
2022/04/01 08:51:37;;;;;;;37.85;10.65;;;;;;;;;;5031563;28;20091;-78
2022/04/01 08:54:04;;;;;;;39.70;12.18;;;;;;;;;;5034281;28;20033;-80
2022/04/01 08:56:30;;;;;;;37.08;10.23;;;;;;;;;;5034241;28;20021;-77
2022/04/01 08:58:56;;;;;;;38.72;12.77;;;;;;;;;;5032362;28;20113;-77
2022/04/01 09:01:23;;;;;;;38.13;10.07;;;;;;;;;;5017802;28;20492;-80
2022/04/01 09:03:49;;;;;;;41.78;12.48;;;;;;;;;;5014403;28;20036;-75
2022/04/01 09:06:19;;;;;;;41.10;10.73;;;;;;;;;;5031604;28;20068;-80
2022/04/01 09:08:45;;;;;;;46.13;11.48;;;;;;;;;;5013161;28;20022;-80
2022/04/01 09:11:18;;;;;;;37.38;11.18;;;;;;;;;;5033640;28;20029;-80
2022/04/01 09:13:53;;;;;;;48.83;14.27;;;;;;;;;;5032207;28;20018;-81
2022/04/01 09:16:25;;;;;;;42.53;12.57;;;;;;;;;;5033876;28;20507;-81
2022/04/01 09:18:52;;;;;;;47.92;14.45;;;;;;;;;;5028775;28;20766;-83
2022/04/01 09:21:18;;;;;;;46.88;13.20;;;;;;;;;;5016238;28;20076;-82
2022/04/01 09:23:48;;;;;;;40.80;12.07;;;;;;;;;;5015390;28;20034;-79
2022/04/01 09:26:18;;;;;;;40.35;13.75;;;;;;;;;;5014263;28;20034;-77
2022/04/01 09:28:46;;;;;;;58.20;17.98;;;;;;;;;;5014286;28;20030;-76
2022/04/01 09:31:14;;;;;;;51.70;16.30;;;;;;;;;;4996726;28;20058;-84
2022/04/01 09:33:40;;;;;;;42.17;13.63;;;;;;;;;;4996225;28;20026;-84
2022/04/01 09:36:07;;;;;;;55.45;16.00;;;;;;;;;;5013610;28;20094;-86
2022/04/01 09:38:35;;;;;;;45.67;14.63;;;;;;;;;;5012817;28;20088;-83
2022/04/01 09:41:02;;;;;;;40.80;11.73;;;;;;;;;;5028963;28;20046;-80
2022/04/01 09:43:39;;;;;;;41.13;10.98;;;;;;;;;;5032817;28;20467;-80
2022/04/01 09:46:21;;;;;;;39.97;13.02;;;;;;;;;;5032597;28;20064;-82
2022/04/01 09:48:48;;;;;;;36.78;12.93;;;;;;;;;;5032429;28;20029;-81
2022/04/01 09:51:15;;;;;;;130.98;56.13;;;;;;;;;;5000606;28;20061;-83
2022/04/01 09:53:50;;;;;;;109.68;46.88;;;;;;;;;;5013500;28;20442;-76
2022/04/01 09:56:16;;;;;;;58.92;25.17;;;;;;;;;;5013289;28;20034;-83
2022/04/01 09:58:42;;;;;;;54.42;19.52;;;;;;;;;;5013835;28;20053;-82
2022/04/01 10:01:09;;;;;;;52.35;18.10;;;;;;;;;;5013134;28;20378;-83
2022/04/01 10:03:35;;;;;;;44.78;12.73;;;;;;;;;;5010325;28;20034;-79
2022/04/01 10:06:02;;;;;;;47.60;13.38;;;;;;;;;;5012791;28;20539;-81
2022/04/01 10:08:29;;;;;;;45.47;11.85;;;;;;;;;;4995052;28;20112;-79
2022/04/01 10:10:57;;;;;;;36.20;12.07;;;;;;;;;;5013000;28;20091;-80
2022/04/01 10:13:24;;;;;;;34.03;12.30;;;;;;;;;;5012231;28;20037;-81
2022/04/01 10:15:51;;;;;;;35.15;10.18;;;;;;;;;;5012830;28;20064;-80
2022/04/01 10:18:19;;;;;;;35.33;11.57;;;;;;;;;;5031084;28;20033;-76
2022/04/01 10:20:49;;;;;;;40.25;13.85;;;;;;;;;;5031417;28;20107;-80
2022/04/01 10:23:15;;;;;;;37.40;11.57;;;;;;;;;;5022002;28;20053;-80
2022/04/01 10:25:53;;;;;;;41.60;11.93;;;;;;;;;;5021122;28;20046;-80
2022/04/01 10:28:21;;;;;;;43.88;11.20;;;;;;;;;;5020838;28;20021;-79
2022/04/01 10:30:51;;;;;;;40.20;10.73;;;;;;;;;;5022680;28;20396;-82
2022/04/01 10:33:29;;;;;;;37.33;10.65;;;;;;;;;;5021996;28;20026;-79
2022/04/01 10:35:55;;;;;;;43.78;15.70;;;;;;;;;;5022208;28;20480;-78
2022/04/01 10:38:24;;;;;;;41.40;15.10;;;;;;;;;;5020191;28;20041;-75
2022/04/01 10:40:51;;;;;;;40.85;11.60;;;;;;;;;;5020227;28;20036;-76
2022/04/01 10:43:18;;;;;;;43.53;12.77;;;;;;;;;;5017759;28;20033;-81
2022/04/01 10:46:03;;;;;;;39.67;10.65;;;;;;;;;;5031439;28;20048;-81
2022/04/01 10:54:12;;;;;;;48.40;12.43;;;;;;;;;;5019174;28;20044;-81
2022/04/01 10:56:39;;;;;;;87.13;25.65;;;;;;;;;;5028816;28;20036;-80
2022/04/01 10:59:05;;;;;;;47.10;13.43;;;;;;;;;;5031911;28;20396;-81
2022/04/01 11:01:32;;;;;;;40.92;12.18;;;;;;;;;;5016812;28;20488;-79
2022/04/01 11:04:17;;;;;;;43.95;15.65;;;;;;;;;;5032349;28;20025;-79
2022/04/01 11:06:53;;;;;;;38.00;10.88;;;;;;;;;;5031351;28;20033;-78
2022/04/01 11:09:38;;;;;;;33.78;10.43;;;;;;;;;;5031568;28;20048;-79
2022/04/01 11:12:21;;;;;;;42.38;11.15;;;;;;;;;;5028963;28;20029;-79
2022/04/01 11:15:07;;;;;;;40.53;10.37;;;;;;;;;;5012419;28;20477;-78
2022/04/01 11:17:52;;;;;;;38.50;9.68;;;;;;;;;;5027227;28;20071;-80
2022/04/01 11:20:27;;;;;;;37.65;12.35;;;;;;;;;;5025868;28;20029;-78
2022/04/01 11:22:53;;;;;;;34.75;10.68;;;;;;;;;;5022390;28;20029;-81
2022/04/01 11:25:25;;;;;;;41.17;10.38;;;;;;;;;;5020778;28;20044;-81
2022/04/01 11:27:57;;;;;;;32.80;9.48;;;;;;;;;;5022245;28;20033;-81
2022/04/01 11:30:25;;;;;;;41.10;9.57;;;;;;;;;;5019360;28;20037;-77
2022/04/01 11:33:02;;;;;;;37.10;10.52;;;;;;;;;;5024142;28;20424;-81
2022/04/01 11:35:30;;;;;;;32.80;8.32;;;;;;;;;;5004026;28;20037;-78
2022/04/01 11:37:57;;;;;;;30.23;10.30;;;;;;;;;;5032264;28;20037;-82
2022/04/01 11:40:25;;;;;;;35.10;9.82;;;;;;;;;;5026737;28;20025;-80
2022/04/01 11:42:52;;;;;;;32.10;9.18;;;;;;;;;;5017970;28;20021;-84
2022/04/01 11:45:20;;;;;;;29.33;8.73;;;;;;;;;;5027994;28;20476;-78
2022/04/01 11:47:46;;;;;;;28.92;8.77;;;;;;;;;;5031328;28;20103;-78
2022/04/01 11:50:14;;;;;;;37.58;9.90;;;;;;;;;;5031403;28;20072;-80
2022/04/01 11:52:45;;;;;;;31.73;8.75;;;;;;;;;;5014585;28;20048;-79
2022/04/01 11:55:15;;;;;;;37.10;9.77;;;;;;;;;;5018799;28;20108;-79
2022/04/01 11:57:42;;;;;;;33.47;10.30;;;;;;;;;;5016583;28;20022;-84
2022/04/01 12:00:15;;;;;;;34.95;11.00;;;;;;;;;;5029896;28;20073;-76
2022/04/01 12:02:42;;;;;;;35.03;10.07;;;;;;;;;;5013863;28;20084;-79
2022/04/01 12:05:09;;;;;;;36.53;10.15;;;;;;;;;;5011677;28;20864;-78
2022/04/01 12:10:21;;;;;;;41.70;11.30;;;;;;;;;;5032411;28;20439;-78
2022/04/01 12:12:56;;;;;;;35.17;10.88;;;;;;;;;;5031450;28;20032;-79
2022/04/01 12:15:37;;;;;;;40.97;12.13;;;;;;;;;;5013636;28;20029;-83
2022/04/01 12:18:05;;;;;;;43.13;12.45;;;;;;;;;;5031418;28;20036;-84
2022/04/01 12:20:32;;;;;;;40.22;11.02;;;;;;;;;;5031865;28;20172;-77
2022/04/01 12:22:59;;;;;;;33.90;11.27;;;;;;;;;;5010403;28;20065;-76
2022/04/01 12:25:27;;;;;;;44.47;13.00;;;;;;;;;;5022899;28;20038;-79
2022/04/01 12:28:01;;;;;;;36.75;11.90;;;;;;;;;;5024252;28;20037;-79
2022/04/01 12:30:46;;;;;;;34.53;10.40;;;;;;;;;;5024010;28;20026;-85
2022/04/01 12:33:17;;;;;;;34.67;10.65;;;;;;;;;;5023225;28;20103;-74
2022/04/01 12:35:55;;;;;;;18.65;5.15;;;;;;;;;;5027750;28;20066;-80
2022/04/01 12:38:22;;;;;;;30.08;10.70;;;;;;;;;;5031506;28;20549;-76
2022/04/01 12:40:48;;;;;;;29.75;9.18;;;;;;;;;;5008401;28;20022;-76
2022/04/01 12:43:32;;;;;;;27.60;9.80;;;;;;;;;;5022238;28;20116;-78
2022/04/01 12:45:59;;;;;;;;;;;;;;;;;;5022255;28;20042;-79
2022/04/01 12:48:26;;;;;;;20.80;9.45;;;;;;;;;;5022282;28;20264;-77
2022/04/01 13:04:20;;;;;;;15.23;6.55;;;;;;;;;;5143452;27;20442;-85
2022/04/01 13:07:09;;;;;;;46.90;27.25;;;;;;;;;;5148903;27;20092;-86
2022/04/01 13:09:54;;;;;;;12.20;4.65;;;;;;;;;;5130329;27;20042;-81
2022/04/01 13:12:22;;;;;;;10.18;3.72;;;;;;;;;;5130722;28;20023;-84
2022/04/01 13:15:00;;;;;;;7.78;2.78;;;;;;;;;;5150140;27;20031;-74
2022/04/01 13:17:27;;;;;;;11.20;6.13;;;;;;;;;;5149746;27;20027;-79
2022/04/01 13:19:53;;;;;;;19.20;7.05;;;;;;;;;;5150870;27;20377;-78
2022/04/01 13:22:19;;;;;;;7.47;3.78;;;;;;;;;;5150286;27;20030;-79
2022/04/01 13:24:49;;;;;;;8.40;3.42;;;;;;;;;;5150375;27;20469;-83
2022/04/01 13:27:19;;;;;;;7.05;3.38;;;;;;;;;;5149457;27;20031;-81
2022/04/01 13:29:46;;;;;;;6.68;4.00;;;;;;;;;;5149232;27;20063;-81
2022/04/01 13:32:13;;;;;;;6.25;2.85;;;;;;;;;;5149835;27;20073;-80
2022/04/01 13:34:40;;;;;;;7.70;3.22;;;;;;;;;;5149933;27;20059;-80
2022/04/01 13:37:07;;;;;;;7.28;2.78;;;;;;;;;;5150253;27;20082;-81
2022/04/01 13:39:34;;;;;;;7.07;4.22;;;;;;;;;;5148760;27;20103;-80
2022/04/01 13:42:05;;;;;;;6.07;3.03;;;;;;;;;;5150447;27;20087;-80
2022/04/01 13:44:31;;;;;;;5.47;2.83;;;;;;;;;;5150093;27;20489;-82
2022/04/01 13:46:58;;;;;;;10.80;3.90;;;;;;;;;;5150354;27;20496;-81
2022/04/01 13:49:24;;;;;;;6.45;3.00;;;;;;;;;;5150386;27;20023;-83
2022/04/01 13:51:52;;;;;;;11.90;3.78;;;;;;;;;;5150114;27;20087;-82
2022/04/01 13:54:18;;;;;;;4.68;3.03;;;;;;;;;;5149621;27;20027;-81
2022/04/01 13:56:48;;;;;;;7.03;4.32;;;;;;;;;;5149713;27;20046;-83
2022/04/01 13:59:14;;;;;;;8.27;3.03;;;;;;;;;;5149687;27;20106;-82
2022/04/01 14:01:40;;;;;;;10.05;2.65;;;;;;;;;;5149900;27;20062;-80
2022/04/01 14:04:07;;;;;;;6.55;2.20;;;;;;;;;;5140826;27;20071;-82
2022/04/01 14:06:34;;;;;;;6.70;2.97;;;;;;;;;;5136421;27;20064;-80
2022/04/01 14:09:02;;;;;;;5.57;2.50;;;;;;;;;;5135987;27;20030;-82
2022/04/01 14:11:28;;;;;;;8.18;2.83;;;;;;;;;;5135279;27;20055;-82
2022/04/01 14:13:54;;;;;;;3.80;2.08;;;;;;;;;;5119142;27;20032;-80
2022/04/01 14:16:20;;;;;;;4.88;3.05;;;;;;;;;;5127597;27;20042;-80
2022/04/01 14:18:47;;;;;;;10.95;5.63;;;;;;;;;;5115037;28;20165;-80
2022/04/01 14:21:13;;;;;;;9.15;4.75;;;;;;;;;;5115372;28;20031;-80
2022/04/01 14:23:40;;;;;;;6.55;3.20;;;;;;;;;;5130282;27;20027;-80
2022/04/01 14:26:08;;;;;;;8.60;3.45;;;;;;;;;;5130891;27;20038;-79
2022/04/01 14:28:35;;;;;;;7.28;3.42;;;;;;;;;;5135882;27;20023;-80
2022/04/01 14:31:01;;;;;;;10.65;5.80;;;;;;;;;;5129227;27;20016;-80
2022/04/01 14:33:28;;;;;;;9.95;5.20;;;;;;;;;;5115164;28;20031;-71
2022/04/01 14:35:55;;;;;;;6.30;3.95;;;;;;;;;;5115230;28;20459;-80
2022/04/01 14:38:21;;;;;;;10.27;6.55;;;;;;;;;;5115198;28;20102;-80
2022/04/01 14:40:51;;;;;;;11.10;6.15;;;;;;;;;;5114959;28;20026;-80
2022/04/01 14:43:17;;;;;;;4.32;2.58;;;;;;;;;;5122293;27;20107;-79
2022/04/01 14:45:45;;;;;;;5.80;5.13;;;;;;;;;;5135473;27;20050;-81
2022/04/01 14:48:11;;;;;;;4.15;2.80;;;;;;;;;;5135713;27;20019;-80
2022/04/01 14:50:37;;;;;;;5.28;1.88;;;;;;;;;;5135141;27;20099;-80
2022/04/01 14:53:07;;;;;;;5.00;1.80;;;;;;;;;;5134789;27;20388;-80
2022/04/01 14:55:34;;;;;;;5.45;2.13;;;;;;;;;;5134096;27;20034;-80
2022/04/01 14:58:00;;;;;;;7.75;2.30;;;;;;;;;;5133420;27;20091;-80
2022/04/01 15:00:26;;;;;;;5.80;2.53;;;;;;;;;;5128888;27;20031;-80
2022/04/01 15:02:52;;;;;;;14.48;10.27;;;;;;;;;;5129340;27;20043;-80
2022/04/01 15:05:19;;;;;;;11.50;8.32;;;;;;;;;;5134915;27;20412;-80
2022/04/01 15:07:46;;;;;;;7.47;4.45;;;;;;;;;;5134789;27;20175;-80
2022/04/01 15:10:14;;;;;;;5.97;3.22;;;;;;;;;;5133985;27;20033;-80
2022/04/01 15:12:41;;;;;;;7.07;3.15;;;;;;;;;;5133540;27;20039;-79